sensor_id;sensor_type;location;lat;lon;timestamp;pressure;altitude;pressure_sealevel;temperature;humidity
34297;BME280;20564;42.902;25.336;2023-10-19T00:00:57;97276.06;;;6.66;100.00
34297;BME280;20564;42.902;25.336;2023-10-19T00:03:26;97277.22;;;6.62;100.00
34297;BME280;20564;42.902;25.336;2023-10-19T00:05:55;97270.84;;;6.66;100.00
34297;BME280;20564;42.902;25.336;2023-10-19T00:08:23;97267.69;;;6.61;99.68
34297;BME280;20564;42.902;25.336;2023-10-19T00:10:52;97263.88;;;6.53;100.00
34297;BME280;20564;42.902;25.336;2023-10-19T00:13:39;97265.44;;;6.56;100.00
34297;BME280;20564;42.902;25.336;2023-10-19T00:16:07;97251.06;;;6.62;99.23
34297;BME280;20564;42.902;25.336;2023-10-19T00:18:44;97252.19;;;6.46;99.84
34297;BME280;20564;42.902;25.336;2023-10-19T00:21:11;97237.91;;;6.39;100.00
34297;BME280;20564;42.902;25.336;2023-10-19T00:23:54;97246.91;;;6.35;100.00
34297;BME280;20564;42.902;25.336;2023-10-19T00:26:26;97236.69;;;6.32;100.00
34297;BME280;20564;42.902;25.336;2023-10-19T00:28:54;97230.63;;;6.32;100.00
34297;BME280;20564;42.902;25.336;2023-10-19T00:31:26;97229.31;;;6.26;100.00
34297;BME280;20564;42.902;25.336;2023-10-19T00:34:00;97235.97;;;6.30;100.00
34297;BME280;20564;42.902;25.336;2023-10-19T00:36:27;97231.97;;;6.37;100.00
34297;BME280;20564;42.902;25.336;2023-10-19T00:38:57;97221.00;;;6.32;100.00
34297;BME280;20564;42.902;25.336;2023-10-19T00:41:27;97228.38;;;6.27;100.00
34297;BME280;20564;42.902;25.336;2023-10-19T00:43:58;97237.78;;;6.30;100.00
34297;BME280;20564;42.902;25.336;2023-10-19T00:46:39;97235.25;;;6.28;100.00
34297;BME280;20564;42.902;25.336;2023-10-19T00:49:13;97228.38;;;6.27;100.00
34297;BME280;20564;42.902;25.336;2023-10-19T00:51:45;97231.09;;;6.25;100.00
34297;BME280;20564;42.902;25.336;2023-10-19T00:54:27;97228.38;;;6.27;100.00
34297;BME280;20564;42.902;25.336;2023-10-19T00:57:13;97216.69;;;6.20;100.00
34297;BME280;20564;42.902;25.336;2023-10-19T00:59:47;97222.97;;;6.17;100.00
34297;BME280;20564;42.902;25.336;2023-10-19T01:02:34;97211.91;;;6.14;100.00
34297;BME280;20564;42.902;25.336;2023-10-19T01:05:01;97219.13;;;6.10;100.00
34297;BME280;20564;42.902;25.336;2023-10-19T01:07:34;97216.06;;;6.16;100.00
34297;BME280;20564;42.902;25.336;2023-10-19T01:10:06;97219.03;;;6.12;100.00
34297;BME280;20564;42.902;25.336;2023-10-19T01:12:39;97221.53;;;6.13;100.00
34297;BME280;20564;42.902;25.336;2023-10-19T01:15:15;97213.34;;;6.18;100.00
34297;BME280;20564;42.902;25.336;2023-10-19T01:18:04;97204.78;;;6.16;100.00
34297;BME280;20564;42.902;25.336;2023-10-19T01:20:32;97203.78;;;6.06;100.00
34297;BME280;20564;42.902;25.336;2023-10-19T01:23:07;97203.53;;;5.97;100.00
34297;BME280;20564;42.902;25.336;2023-10-19T01:26:00;97207.91;;;5.97;100.00
34297;BME280;20564;42.902;25.336;2023-10-19T01:28:34;97193.78;;;5.99;100.00
34297;BME280;20564;42.902;25.336;2023-10-19T01:31:14;97201.63;;;5.99;100.00
34297;BME280;20564;42.902;25.336;2023-10-19T01:33:55;97198.41;;;5.96;100.00
34297;BME280;20564;42.902;25.336;2023-10-19T01:36:24;97200.91;;;5.97;100.00
34297;BME280;20564;42.902;25.336;2023-10-19T01:38:56;97204.75;;;6.04;100.00
34297;BME280;20564;42.902;25.336;2023-10-19T01:41:28;97196.19;;;6.02;100.00
34297;BME280;20564;42.902;25.336;2023-10-19T01:43:57;97205.69;;;6.03;100.00
34297;BME280;20564;42.902;25.336;2023-10-19T01:46:32;97203.09;;;6.03;100.00
34297;BME280;20564;42.902;25.336;2023-10-19T01:49:04;97199.53;;;6.04;100.00
34297;BME280;20564;42.902;25.336;2023-10-19T01:51:32;97199.78;;;6.13;100.00
34297;BME280;20564;42.902;25.336;2023-10-19T01:54:00;97193.34;;;6.06;100.00
34297;BME280;20564;42.902;25.336;2023-10-19T01:56:30;97191.91;;;6.01;100.00
34297;BME280;20564;42.902;25.336;2023-10-19T01:58:57;97194.56;;;6.13;100.00
34297;BME280;20564;42.902;25.336;2023-10-19T02:01:25;97191.00;;;6.14;100.00
34297;BME280;20564;42.902;25.336;2023-10-19T02:03:59;97181.75;;;6.21;100.00
34297;BME280;20564;42.902;25.336;2023-10-19T02:06:31;97176.81;;;6.29;100.00
34297;BME280;20564;42.902;25.336;2023-10-19T02:09:11;97179.00;;;6.58;100.00
34297;BME280;20564;42.902;25.336;2023-10-19T02:11:59;97182.53;;;6.92;100.00
34297;BME280;20564;42.902;25.336;2023-10-19T02:14:28;97178.38;;;7.12;100.00
34297;BME280;20564;42.902;25.336;2023-10-19T02:17:00;97178.44;;;7.55;100.00
34297;BME280;20564;42.902;25.336;2023-10-19T02:19:29;97169.25;;;7.72;100.00
34297;BME280;20564;42.902;25.336;2023-10-19T02:21:57;97178.03;;;7.93;100.00
34297;BME280;20564;42.902;25.336;2023-10-19T02:24:25;97180.47;;;8.06;100.00
34297;BME280;20564;42.902;25.336;2023-10-19T02:26:55;97185.22;;;8.33;100.00
34297;BME280;20564;42.902;25.336;2023-10-19T02:29:23;97174.72;;;8.44;100.00
34297;BME280;20564;42.902;25.336;2023-10-19T02:31:51;97176.41;;;8.45;100.00
34297;BME280;20564;42.902;25.336;2023-10-19T02:34:20;97170.03;;;8.48;100.00
34297;BME280;20564;42.902;25.336;2023-10-19T02:36:47;97169.47;;;8.44;100.00
34297;BME280;20564;42.902;25.336;2023-10-19T02:39:17;97175.47;;;8.35;100.00
34297;BME280;20564;42.902;25.336;2023-10-19T02:41:46;97172.41;;;8.30;100.00
34297;BME280;20564;42.902;25.336;2023-10-19T02:44:19;97174.28;;;8.28;100.00
34297;BME280;20564;42.902;25.336;2023-10-19T02:46:51;97178.56;;;8.29;100.00
34297;BME280;20564;42.902;25.336;2023-10-19T02:49:21;97184.06;;;8.26;100.00
34297;BME280;20564;42.902;25.336;2023-10-19T02:51:49;97180.28;;;8.19;100.00
34297;BME280;20564;42.902;25.336;2023-10-19T02:54:18;97184.13;;;8.15;100.00
34297;BME280;20564;42.902;25.336;2023-10-19T02:56:52;97186.19;;;8.00;100.00
34297;BME280;20564;42.902;25.336;2023-10-19T02:59:21;97182.06;;;7.97;100.00
34297;BME280;20564;42.902;25.336;2023-10-19T03:01:56;97181.56;;;7.92;100.00
34297;BME280;20564;42.902;25.336;2023-10-19T03:04:29;97171.34;;;7.89;100.00
34297;BME280;20564;42.902;25.336;2023-10-19T03:06:57;97180.91;;;7.79;100.00
34297;BME280;20564;42.902;25.336;2023-10-19T03:09:24;97187.34;;;7.75;100.00
34297;BME280;20564;42.902;25.336;2023-10-19T03:11:55;97191.06;;;7.72;100.00
34297;BME280;20564;42.902;25.336;2023-10-19T03:14:27;97185.09;;;7.70;100.00
34297;BME280;20564;42.902;25.336;2023-10-19T03:16:54;97184.41;;;7.68;100.00
34297;BME280;20564;42.902;25.336;2023-10-19T03:19:22;97180.22;;;7.66;100.00
34297;BME280;20564;42.902;25.336;2023-10-19T03:21:52;97185.00;;;7.61;100.00
34297;BME280;20564;42.902;25.336;2023-10-19T03:24:22;97179.41;;;7.54;100.00
34297;BME280;20564;42.902;25.336;2023-10-19T03:27:12;97180.84;;;7.58;100.00
34297;BME280;20564;42.902;25.336;2023-10-19T03:29:43;97181.22;;;7.54;100.00
34297;BME280;20564;42.902;25.336;2023-10-19T03:32:25;97187.66;;;7.49;100.00
34297;BME280;20564;42.902;25.336;2023-10-19T03:34:59;97179.31;;;7.44;100.00
34297;BME280;20564;42.902;25.336;2023-10-19T03:37:28;97180.03;;;7.46;100.00
34297;BME280;20564;42.902;25.336;2023-10-19T03:40:02;97167.41;;;7.40;100.00
34297;BME280;20564;42.902;25.336;2023-10-19T03:42:34;97170.41;;;7.36;100.00
34297;BME280;20564;42.902;25.336;2023-10-19T03:45:07;97163.97;;;7.29;100.00
34297;BME280;20564;42.902;25.336;2023-10-19T03:47:41;97161.81;;;7.34;100.00
34297;BME280;20564;42.902;25.336;2023-10-19T03:50:10;97162.88;;;7.31;100.00
34297;BME280;20564;42.902;25.336;2023-10-19T03:52:42;97162.88;;;7.31;100.00
34297;BME280;20564;42.902;25.336;2023-10-19T03:55:09;97149.19;;;7.28;100.00
34297;BME280;20564;42.902;25.336;2023-10-19T03:57:42;97142.44;;;7.25;100.00
34297;BME280;20564;42.902;25.336;2023-10-19T04:00:14;97146.72;;;7.26;100.00
34297;BME280;20564;42.902;25.336;2023-10-19T04:02:52;97144.22;;;7.24;100.00
34297;BME280;20564;42.902;25.336;2023-10-19T04:05:26;97148.88;;;7.21;100.00
34297;BME280;20564;42.902;25.336;2023-10-19T04:07:55;97140.50;;;7.27;100.00
34297;BME280;20564;42.902;25.336;2023-10-19T04:10:25;97141.25;;;7.18;100.00
34297;BME280;20564;42.902;25.336;2023-10-19T04:13:02;97135.53;;;7.24;100.00
34297;BME280;20564;42.902;25.336;2023-10-19T04:15:32;97148.16;;;7.19;100.00
34297;BME280;20564;42.902;25.336;2023-10-19T04:18:03;97147.69;;;7.25;100.00
34297;BME280;20564;42.902;25.336;2023-10-19T04:20:38;97151.97;;;7.15;100.00
34297;BME280;20564;42.902;25.336;2023-10-19T04:23:18;97155.53;;;7.14;100.00
34297;BME280;20564;42.902;25.336;2023-10-19T04:25:45;97146.50;;;7.18;100.00
34297;BME280;20564;42.902;25.336;2023-10-19T04:28:14;97149.69;;;7.21;100.00
34297;BME280;20564;42.902;25.336;2023-10-19T04:30:50;97141.50;;;7.15;100.00
34297;BME280;20564;42.902;25.336;2023-10-19T04:33:18;97136.72;;;7.09;100.00
34297;BME280;20564;42.902;25.336;2023-10-19T04:35:45;97145.06;;;7.14;100.00
34297;BME280;20564;42.902;25.336;2023-10-19T04:38:12;97134.00;;;7.10;100.00
34297;BME280;20564;42.902;25.336;2023-10-19T04:40:40;97142.31;;;7.15;100.00
34297;BME280;20564;42.902;25.336;2023-10-19T04:43:07;97139.84;;;7.14;100.00
34297;BME280;20564;42.902;25.336;2023-10-19T04:45:34;97126.25;;;7.09;100.00
34297;BME280;20564;42.902;25.336;2023-10-19T04:48:06;97134.38;;;7.17;100.00
34297;BME280;20564;42.902;25.336;2023-10-19T04:50:33;97137.66;;;7.19;100.00
34297;BME280;20564;42.902;25.336;2023-10-19T04:53:00;97143.50;;;7.22;100.00
34297;BME280;20564;42.902;25.336;2023-10-19T04:55:29;97137.91;;;7.27;100.00
34297;BME280;20564;42.902;25.336;2023-10-19T04:57:56;97147.06;;;7.33;100.00
34297;BME280;20564;42.902;25.336;2023-10-19T05:00:24;97150.75;;;7.30;100.00
34297;BME280;20564;42.902;25.336;2023-10-19T05:02:51;97152.16;;;7.34;100.00
34297;BME280;20564;42.902;25.336;2023-10-19T05:05:19;97155.38;;;7.38;100.00
34297;BME280;20564;42.902;25.336;2023-10-19T05:07:54;97148.84;;;7.32;100.00
34297;BME280;20564;42.902;25.336;2023-10-19T05:10:22;97155.50;;;7.36;100.00
34297;BME280;20564;42.902;25.336;2023-10-19T05:12:49;97140.75;;;7.35;100.00
34297;BME280;20564;42.902;25.336;2023-10-19T05:15:16;97142.63;;;7.44;100.00
34297;BME280;20564;42.902;25.336;2023-10-19T05:17:43;97139.31;;;7.54;100.00
34297;BME280;20564;42.902;25.336;2023-10-19T05:20:10;97150.47;;;7.56;100.00
34297;BME280;20564;42.902;25.336;2023-10-19T05:22:38;97137.84;;;7.61;100.00
34297;BME280;20564;42.902;25.336;2023-10-19T05:25:08;97144.00;;;7.71;100.00
34297;BME280;20564;42.902;25.336;2023-10-19T05:27:37;97142.09;;;7.73;100.00
34297;BME280;20564;42.902;25.336;2023-10-19T05:30:05;97148.28;;;7.83;100.00
34297;BME280;20564;42.902;25.336;2023-10-19T05:32:32;97146.84;;;7.79;100.00
34297;BME280;20564;42.902;25.336;2023-10-19T05:35:00;97152.16;;;7.89;100.00
34297;BME280;20564;42.902;25.336;2023-10-19T05:37:31;97142.41;;;7.91;100.00
34297;BME280;20564;42.902;25.336;2023-10-19T05:40:01;97147.75;;;7.89;100.00
34297;BME280;20564;42.902;25.336;2023-10-19T05:42:31;97147.59;;;8.02;100.00
34297;BME280;20564;42.902;25.336;2023-10-19T05:44:58;97141.00;;;8.08;100.00
34297;BME280;20564;42.902;25.336;2023-10-19T05:47:26;97143.91;;;8.26;100.00
34297;BME280;20564;42.902;25.336;2023-10-19T05:49:53;97149.22;;;8.35;100.00
34297;BME280;20564;42.902;25.336;2023-10-19T05:52:20;97148.22;;;8.48;100.00
34297;BME280;20564;42.902;25.336;2023-10-19T05:54:47;97148.63;;;8.64;100.00
34297;BME280;20564;42.902;25.336;2023-10-19T05:57:14;97138.75;;;8.77;100.00
34297;BME280;20564;42.902;25.336;2023-10-19T05:59:41;97143.13;;;8.98;100.00
34297;BME280;20564;42.902;25.336;2023-10-19T06:02:08;97141.56;;;9.16;100.00
34297;BME280;20564;42.902;25.336;2023-10-19T06:04:37;97129.91;;;9.49;100.00
34297;BME280;20564;42.902;25.336;2023-10-19T06:07:06;97131.59;;;9.79;100.00
34297;BME280;20564;42.902;25.336;2023-10-19T06:09:33;97126.25;;;10.10;100.00
34297;BME280;20564;42.902;25.336;2023-10-19T06:12:02;97140.34;;;10.48;100.00
34297;BME280;20564;42.902;25.336;2023-10-19T06:14:30;97129.13;;;10.65;100.00
34297;BME280;20564;42.902;25.336;2023-10-19T06:16:57;97131.78;;;10.93;100.00
34297;BME280;20564;42.902;25.336;2023-10-19T06:19:24;97132.03;;;11.09;100.00
34297;BME280;20564;42.902;25.336;2023-10-19T06:21:51;97126.75;;;11.37;100.00
34297;BME280;20564;42.902;25.336;2023-10-19T06:24:18;97134.94;;;11.61;100.00
34297;BME280;20564;42.902;25.336;2023-10-19T06:26:46;97133.56;;;11.85;97.53
34297;BME280;20564;42.902;25.336;2023-10-19T06:29:12;97132.81;;;12.10;94.75
34297;BME280;20564;42.902;25.336;2023-10-19T06:31:42;97135.97;;;12.31;93.18
34297;BME280;20564;42.902;25.336;2023-10-19T06:34:10;97133.03;;;12.52;91.11
34297;BME280;20564;42.902;25.336;2023-10-19T06:36:37;97131.09;;;12.81;90.32
34297;BME280;20564;42.902;25.336;2023-10-19T06:39:04;97128.22;;;13.00;89.13
34297;BME280;20564;42.902;25.336;2023-10-19T06:41:32;97126.84;;;13.22;86.92
34297;BME280;20564;42.902;25.336;2023-10-19T06:43:59;97132.28;;;13.46;83.79
34297;BME280;20564;42.902;25.336;2023-10-19T06:46:27;97117.25;;;13.63;83.66
34297;BME280;20564;42.902;25.336;2023-10-19T06:48:55;97124.56;;;13.78;82.22
34297;BME280;20564;42.902;25.336;2023-10-19T06:51:26;97119.53;;;14.01;81.54
34297;BME280;20564;42.902;25.336;2023-10-19T06:53:53;97117.88;;;14.16;77.11
34297;BME280;20564;42.902;25.336;2023-10-19T06:56:23;97119.69;;;14.32;76.40
34297;BME280;20564;42.902;25.336;2023-10-19T06:58:51;97115.56;;;14.45;75.38
34297;BME280;20564;42.902;25.336;2023-10-19T07:01:17;97115.06;;;14.58;74.68
34297;BME280;20564;42.902;25.336;2023-10-19T07:03:45;97122.31;;;14.81;73.89
34297;BME280;20564;42.902;25.336;2023-10-19T07:06:12;97115.66;;;15.01;72.50
34297;BME280;20564;42.902;25.336;2023-10-19T07:08:40;97116.81;;;15.07;70.84
34297;BME280;20564;42.902;25.336;2023-10-19T07:11:07;97107.34;;;15.12;71.67
34297;BME280;20564;42.902;25.336;2023-10-19T07:13:36;97106.19;;;15.15;69.61
34297;BME280;20564;42.902;25.336;2023-10-19T07:16:04;97108.31;;;15.19;69.79
34297;BME280;20564;42.902;25.336;2023-10-19T07:18:31;97109.47;;;15.25;69.34
34297;BME280;20564;42.902;25.336;2023-10-19T07:20:58;97100.84;;;15.23;69.01
34297;BME280;20564;42.902;25.336;2023-10-19T07:23:31;97101.66;;;15.24;68.83
34297;BME280;20564;42.902;25.336;2023-10-19T07:25:59;97101.28;;;15.35;68.57
34297;BME280;20564;42.902;25.336;2023-10-19T07:28:32;97091.34;;;15.37;67.10
34297;BME280;20564;42.902;25.336;2023-10-19T07:31:04;97098.34;;;15.30;67.57
34297;BME280;20564;42.902;25.336;2023-10-19T07:33:34;97096.66;;;15.37;67.50
34297;BME280;20564;42.902;25.336;2023-10-19T07:36:12;97088.19;;;15.41;67.31
34297;BME280;20564;42.902;25.336;2023-10-19T07:38:41;97091.16;;;15.38;63.61
34297;BME280;20564;42.902;25.336;2023-10-19T07:41:13;97092.78;;;15.48;62.35
34297;BME280;20564;42.902;25.336;2023-10-19T07:43:40;97097.28;;;15.47;61.21
34297;BME280;20564;42.902;25.336;2023-10-19T07:46:09;97092.56;;;15.57;60.84
34297;BME280;20564;42.902;25.336;2023-10-19T07:48:36;97082.81;;;15.58;61.22
34297;BME280;20564;42.902;25.336;2023-10-19T07:51:03;97087.28;;;15.65;60.33
34297;BME280;20564;42.902;25.336;2023-10-19T07:53:31;97093.41;;;15.58;59.97
34297;BME280;20564;42.902;25.336;2023-10-19T07:55:58;97086.25;;;15.66;60.18
34297;BME280;20564;42.902;25.336;2023-10-19T07:58:25;97093.88;;;15.70;60.00
34297;BME280;20564;42.902;25.336;2023-10-19T08:00:56;97082.03;;;15.80;59.10
34297;BME280;20564;42.902;25.336;2023-10-19T08:03:23;97071.16;;;15.90;58.73
34297;BME280;20564;42.902;25.336;2023-10-19T08:05:50;97082.03;;;16.03;57.78
34297;BME280;20564;42.902;25.336;2023-10-19T08:08:17;97077.00;;;16.08;56.62
34297;BME280;20564;42.902;25.336;2023-10-19T08:10:44;97072.13;;;16.20;57.10
34297;BME280;20564;42.902;25.336;2023-10-19T08:13:11;97072.44;;;16.40;56.36
34297;BME280;20564;42.902;25.336;2023-10-19T08:15:39;97076.69;;;16.49;55.14
34297;BME280;20564;42.902;25.336;2023-10-19T08:18:07;97074.31;;;16.54;55.97
34297;BME280;20564;42.902;25.336;2023-10-19T08:20:33;97067.19;;;16.70;54.83
34297;BME280;20564;42.902;25.336;2023-10-19T08:23:04;97066.50;;;16.76;54.72
34297;BME280;20564;42.902;25.336;2023-10-19T08:25:32;97065.03;;;16.88;54.11
34297;BME280;20564;42.902;25.336;2023-10-19T08:28:20;97069.34;;;17.04;53.24
34297;BME280;20564;42.902;25.336;2023-10-19T08:30:49;97063.66;;;17.07;53.45
34297;BME280;20564;42.902;25.336;2023-10-19T08:33:31;97062.00;;;17.06;52.25
34297;BME280;20564;42.902;25.336;2023-10-19T08:36:01;97062.47;;;17.09;53.20
34297;BME280;20564;42.902;25.336;2023-10-19T08:38:28;97062.28;;;17.26;51.48
34297;BME280;20564;42.902;25.336;2023-10-19T08:40:57;97059.03;;;17.45;52.66
34297;BME280;20564;42.902;25.336;2023-10-19T08:43:27;97054.81;;;17.72;50.47
34297;BME280;20564;42.902;25.336;2023-10-19T08:45:55;97046.94;;;17.79;50.13
34297;BME280;20564;42.902;25.336;2023-10-19T08:48:24;97051.00;;;17.96;49.23
34297;BME280;20564;42.902;25.336;2023-10-19T08:50:52;97056.59;;;18.01;48.76
34297;BME280;20564;42.902;25.336;2023-10-19T08:53:24;97046.19;;;18.06;48.91
34297;BME280;20564;42.902;25.336;2023-10-19T08:55:51;97043.03;;;18.18;48.13
34297;BME280;20564;42.902;25.336;2023-10-19T08:58:21;97039.41;;;18.25;46.69
34297;BME280;20564;42.902;25.336;2023-10-19T09:00:49;97045.47;;;18.41;47.25
34297;BME280;20564;42.902;25.336;2023-10-19T09:03:21;97039.31;;;18.40;46.70
34297;BME280;20564;42.902;25.336;2023-10-19T09:05:49;97045.94;;;18.51;47.22
34297;BME280;20564;42.902;25.336;2023-10-19T09:08:18;97041.28;;;18.60;45.85
34297;BME280;20564;42.902;25.336;2023-10-19T09:10:48;97040.78;;;18.71;46.26
34297;BME280;20564;42.902;25.336;2023-10-19T09:13:16;97034.47;;;18.78;45.55
34297;BME280;20564;42.902;25.336;2023-10-19T09:15:47;97027.63;;;18.69;44.97
34297;BME280;20564;42.902;25.336;2023-10-19T09:18:17;97018.16;;;18.67;45.10
34297;BME280;20564;42.902;25.336;2023-10-19T09:20:45;97013.34;;;18.77;45.67
34297;BME280;20564;42.902;25.336;2023-10-19T09:23:31;97017.09;;;18.89;44.48
34297;BME280;20564;42.902;25.336;2023-10-19T09:25:59;96989.47;;;19.03;44.70
34297;BME280;20564;42.902;25.336;2023-10-19T09:29:01;96995.72;;;19.24;44.46
34297;BME280;20564;42.902;25.336;2023-10-19T09:31:30;96984.88;;;19.32;43.76
34297;BME280;20564;42.902;25.336;2023-10-19T09:33:59;96979.09;;;19.28;42.97
34297;BME280;20564;42.902;25.336;2023-10-19T09:36:29;96980.09;;;19.21;43.22
34297;BME280;20564;42.902;25.336;2023-10-19T09:38:58;96985.63;;;19.19;43.59
34297;BME280;20564;42.902;25.336;2023-10-19T09:41:29;96984.03;;;19.25;43.98
34297;BME280;20564;42.902;25.336;2023-10-19T09:44:04;96981.38;;;19.32;43.23
34297;BME280;20564;42.902;25.336;2023-10-19T09:46:37;96979.44;;;19.06;43.75
34297;BME280;20564;42.902;25.336;2023-10-19T09:49:08;96987.59;;;18.97;43.10
34297;BME280;20564;42.902;25.336;2023-10-19T09:51:40;96968.34;;;19.02;43.02
34297;BME280;20564;42.902;25.336;2023-10-19T09:54:47;96982.50;;;19.02;43.23
34297;BME280;20564;42.902;25.336;2023-10-19T09:57:18;96974.47;;;18.96;42.75
34297;BME280;20564;42.902;25.336;2023-10-19T09:59:56;96986.16;;;18.95;43.06
34297;BME280;20564;42.902;25.336;2023-10-19T10:02:27;96984.78;;;19.12;43.17
34297;BME280;20564;42.902;25.336;2023-10-19T10:04:54;96985.06;;;19.24;42.78
34297;BME280;20564;42.902;25.336;2023-10-19T10:07:23;96982.41;;;19.31;42.69
34297;BME280;20564;42.902;25.336;2023-10-19T10:09:57;96974.44;;;19.50;42.65
34297;BME280;20564;42.902;25.336;2023-10-19T10:12:25;96975.13;;;19.66;42.07
34297;BME280;20564;42.902;25.336;2023-10-19T10:15:04;96977.78;;;19.66;43.43
34297;BME280;20564;42.902;25.336;2023-10-19T10:17:36;96983.38;;;19.71;43.51
34297;BME280;20564;42.902;25.336;2023-10-19T10:22:44;96984.19;;;19.71;43.99
34297;BME280;20564;42.902;25.336;2023-10-19T10:25:37;96980.75;;;19.30;45.12
34297;BME280;20564;42.902;25.336;2023-10-19T10:28:06;96978.75;;;19.38;44.85
34297;BME280;20564;42.902;25.336;2023-10-19T10:30:36;96973.41;;;19.38;45.20
34297;BME280;20564;42.902;25.336;2023-10-19T10:33:03;96966.41;;;19.37;45.03
34297;BME280;20564;42.902;25.336;2023-10-19T10:38:09;96951.19;;;19.38;45.33
34297;BME280;20564;42.902;25.336;2023-10-19T10:40:49;96942.56;;;19.29;44.40
34297;BME280;20564;42.902;25.336;2023-10-19T10:43:18;96937.53;;;18.99;45.22
34297;BME280;20564;42.902;25.336;2023-10-19T10:45:46;96939.41;;;18.99;45.25
34297;BME280;20564;42.902;25.336;2023-10-19T10:48:14;96937.53;;;18.99;45.50
34297;BME280;20564;42.902;25.336;2023-10-19T10:50:41;96949.69;;;19.09;45.01
34297;BME280;20564;42.902;25.336;2023-10-19T10:53:10;96950.66;;;18.94;45.52
34297;BME280;20564;42.902;25.336;2023-10-19T10:55:39;96938.16;;;18.95;45.92
34297;BME280;20564;42.902;25.336;2023-10-19T10:58:06;96945.34;;;18.94;46.05
34297;BME280;20564;42.902;25.336;2023-10-19T11:00:33;96932.75;;;18.82;46.22
34297;BME280;20564;42.902;25.336;2023-10-19T11:03:04;96927.63;;;18.80;46.29
34297;BME280;20564;42.902;25.336;2023-10-19T11:05:34;96931.28;;;18.79;45.75
34297;BME280;20564;42.902;25.336;2023-10-19T11:10:30;96925.56;;;18.82;47.10
34297;BME280;20564;42.902;25.336;2023-10-19T11:13:04;96920.72;;;18.99;46.53
34297;BME280;20564;42.902;25.336;2023-10-19T11:15:33;96922.00;;;19.10;46.10
34297;BME280;20564;42.902;25.336;2023-10-19T11:18:00;96917.09;;;19.20;45.99
34297;BME280;20564;42.902;25.336;2023-10-19T11:20:29;96914.25;;;19.28;45.66
34297;BME280;20564;42.902;25.336;2023-10-19T11:22:57;96907.28;;;19.27;46.01
34297;BME280;20564;42.902;25.336;2023-10-19T11:25:28;96920.34;;;19.15;45.97
34297;BME280;20564;42.902;25.336;2023-10-19T11:27:57;96904.69;;;18.92;46.51
34297;BME280;20564;42.902;25.336;2023-10-19T11:30:29;96911.22;;;18.90;46.97
34297;BME280;20564;42.902;25.336;2023-10-19T11:32:58;96911.69;;;19.00;46.19
34297;BME280;20564;42.902;25.336;2023-10-19T11:35:30;96900.44;;;19.11;45.74
34297;BME280;20564;42.902;25.336;2023-10-19T11:37:59;96903.56;;;19.28;45.70
34297;BME280;20564;42.902;25.336;2023-10-19T11:40:27;96899.06;;;19.48;45.57
34297;BME280;20564;42.902;25.336;2023-10-19T11:42:55;96901.59;;;19.77;45.81
34297;BME280;20564;42.902;25.336;2023-10-19T11:45:27;96899.13;;;19.95;44.62
34297;BME280;20564;42.902;25.336;2023-10-19T11:47:55;96895.63;;;20.08;44.61
34297;BME280;20564;42.902;25.336;2023-10-19T11:50:24;96891.06;;;20.21;43.53
34297;BME280;20564;42.902;25.336;2023-10-19T11:52:51;96886.78;;;20.07;43.93
34297;BME280;20564;42.902;25.336;2023-10-19T11:55:19;96882.66;;;20.18;43.76
34297;BME280;20564;42.902;25.336;2023-10-19T11:57:48;96876.06;;;20.27;43.67
34297;BME280;20564;42.902;25.336;2023-10-19T12:00:15;96870.31;;;20.17;43.38
34297;BME280;20564;42.902;25.336;2023-10-19T12:02:49;96862.75;;;19.94;44.21
34297;BME280;20564;42.902;25.336;2023-10-19T12:05:16;96874.03;;;20.09;44.41
34297;BME280;20564;42.902;25.336;2023-10-19T12:07:43;96872.41;;;20.15;43.96
34297;BME280;20564;42.902;25.336;2023-10-19T12:10:12;96856.31;;;20.21;44.37
34297;BME280;20564;42.902;25.336;2023-10-19T12:12:42;96849.34;;;20.20;43.62
34297;BME280;20564;42.902;25.336;2023-10-19T12:15:26;96853.06;;;20.26;44.20
34297;BME280;20564;42.902;25.336;2023-10-19T12:17:54;96846.84;;;20.26;42.94
34297;BME280;20564;42.902;25.336;2023-10-19T12:20:22;96858.75;;;20.36;44.43
34297;BME280;20564;42.902;25.336;2023-10-19T12:22:49;96849.75;;;20.31;44.09
34297;BME280;20564;42.902;25.336;2023-10-19T12:25:21;96851.38;;;20.38;43.94
34297;BME280;20564;42.902;25.336;2023-10-19T12:28:08;96846.00;;;20.38;43.56
34297;BME280;20564;42.902;25.336;2023-10-19T12:30:41;96845.63;;;20.35;42.83
34297;BME280;20564;42.902;25.336;2023-10-19T12:33:11;96850.53;;;20.44;43.06
34297;BME280;20564;42.902;25.336;2023-10-19T12:35:42;96838.78;;;20.45;42.52
34297;BME280;20564;42.902;25.336;2023-10-19T12:38:16;96839.19;;;20.49;42.23
34297;BME280;20564;42.902;25.336;2023-10-19T12:40:44;96833.22;;;20.47;42.13
34297;BME280;20564;42.902;25.336;2023-10-19T12:43:11;96832.41;;;20.46;41.71
34297;BME280;20564;42.902;25.336;2023-10-19T12:45:39;96825.44;;;20.45;41.62
34297;BME280;20564;42.902;25.336;2023-10-19T12:48:06;96822.75;;;20.45;41.57
34297;BME280;20564;42.902;25.336;2023-10-19T12:50:34;96816.59;;;20.52;42.07
34297;BME280;20564;42.902;25.336;2023-10-19T12:53:01;96815.72;;;20.58;40.93
34297;BME280;20564;42.902;25.336;2023-10-19T12:55:28;96810.19;;;20.59;41.14
34297;BME280;20564;42.902;25.336;2023-10-19T12:57:55;96812.47;;;20.56;41.37
34297;BME280;20564;42.902;25.336;2023-10-19T13:00:23;96801.97;;;20.54;41.45
34297;BME280;20564;42.902;25.336;2023-10-19T13:02:52;96813.69;;;20.53;42.32
34297;BME280;20564;42.902;25.336;2023-10-19T13:05:37;96807.72;;;20.58;42.01
34297;BME280;20564;42.902;25.336;2023-10-19T13:08:08;96804.63;;;20.61;41.83
34297;BME280;20564;42.902;25.336;2023-10-19T13:10:35;96794.53;;;20.63;42.15
34297;BME280;20564;42.902;25.336;2023-10-19T13:13:05;96799.00;;;20.69;42.07
34297;BME280;20564;42.902;25.336;2023-10-19T13:15:38;96799.47;;;20.66;42.19